createdAt,value
2022-11-15T00:00:31.222Z,2.55
2022-11-15T00:03:52.546Z,2.22
2022-11-15T00:07:33.174Z,2.22
2022-11-15T00:11:00.944Z,2.06
2022-11-15T00:14:22.338Z,1.92
2022-11-15T00:17:43.565Z,1.81
2022-11-15T00:21:07.637Z,1.75
2022-11-15T00:24:28.454Z,1.55
2022-11-15T00:27:49.364Z,1.52
2022-11-15T00:31:13.392Z,1.57
2022-11-15T00:34:34.291Z,1.50
2022-11-15T00:37:55.472Z,1.56
2022-11-15T00:41:16.557Z,1.70
2022-11-15T00:44:37.518Z,1.78
2022-11-15T00:47:58.900Z,1.71
2022-11-15T00:51:20.189Z,1.74
2022-11-15T00:54:41.092Z,1.75
2022-11-15T00:58:02.049Z,1.90
2022-11-15T01:01:23.427Z,1.93
2022-11-15T01:04:44.745Z,2.17
2022-11-15T01:08:06.031Z,2.05
2022-11-15T01:11:27.217Z,2.24
2022-11-15T01:14:48.123Z,2.19
2022-11-15T01:18:09.018Z,2.03
2022-11-15T01:21:29.777Z,1.83
2022-11-15T01:24:51.704Z,1.95
2022-11-15T01:28:12.868Z,1.56
2022-11-15T01:31:33.999Z,1.44
2022-11-15T01:34:55.116Z,1.20
2022-11-15T01:38:15.897Z,1.18
2022-11-15T01:41:37.216Z,1.28
2022-11-15T01:44:58.276Z,1.36
2022-11-15T01:48:19.868Z,1.50
2022-11-15T01:51:41.063Z,1.67
2022-11-15T01:55:08.628Z,1.66
2022-11-15T01:58:29.923Z,1.73
2022-11-15T02:01:51.903Z,1.75
2022-11-15T02:05:13.299Z,1.75
2022-11-15T02:08:34.361Z,1.75
2022-11-15T02:11:56.911Z,1.86
2022-11-15T02:15:18.275Z,1.81
2022-11-15T02:18:46.055Z,1.92
2022-11-15T02:22:22.483Z,1.92
2022-11-15T02:26:05.228Z,1.88
2022-11-15T02:29:42.511Z,1.90
2022-11-15T02:33:33.428Z,1.92
2022-11-15T02:37:17.458Z,2.00
2022-11-15T02:40:57.305Z,1.73
2022-11-15T02:44:27.256Z,1.72
2022-11-15T02:47:53.093Z,1.62
2022-11-15T02:51:15.745Z,1.48
2022-11-15T02:54:36.883Z,1.44
2022-11-15T02:58:25.568Z,1.39
2022-11-15T03:02:01.537Z,1.34
2022-11-15T03:05:55.690Z,1.43
2022-11-15T03:09:34.469Z,1.60
2022-11-15T03:13:08.852Z,1.57
2022-11-15T03:16:52.221Z,1.68
2022-11-15T03:20:16.779Z,1.84
2022-11-15T03:23:39.682Z,1.91
2022-11-15T03:27:02.780Z,1.65
2022-11-15T03:30:23.870Z,1.59
2022-11-15T03:33:45.189Z,1.34
2022-11-15T03:37:08.096Z,1.36
2022-11-15T03:40:40.566Z,1.47
2022-11-15T03:44:11.120Z,1.48
2022-11-15T03:47:44.619Z,1.44
2022-11-15T03:51:06.438Z,1.39
2022-11-15T03:54:27.493Z,1.39
2022-11-15T03:57:51.171Z,1.25
2022-11-15T04:01:12.596Z,1.33
2022-11-15T04:04:33.613Z,1.28
2022-11-15T04:07:54.509Z,1.13
2022-11-15T04:11:15.756Z,1.22
2022-11-15T04:14:36.454Z,1.43
2022-11-15T04:17:58.500Z,1.39
2022-11-15T04:21:37.702Z,1.55
2022-11-15T04:25:00.698Z,1.48
2022-11-15T04:28:21.963Z,1.61
2022-11-15T04:31:43.037Z,1.57
2022-11-15T04:35:04.384Z,1.62
2022-11-15T04:38:25.450Z,1.82
2022-11-15T04:41:46.216Z,1.90
2022-11-15T04:45:07.536Z,1.88
2022-11-15T04:48:28.716Z,1.92
2022-11-15T04:51:49.756Z,1.99
2022-11-15T04:55:11.935Z,1.99
2022-11-15T04:58:32.969Z,2.01
2022-11-15T05:01:54.055Z,1.83
2022-11-15T05:05:15.111Z,1.57
2022-11-15T05:08:35.999Z,1.35
2022-11-15T05:11:57.321Z,1.36
2022-11-15T05:15:18.307Z,1.30
2022-11-15T05:18:41.696Z,1.19
2022-11-15T05:22:03.065Z,1.15
2022-11-15T05:25:24.215Z,1.36
2022-11-15T05:28:45.691Z,1.39
2022-11-15T05:32:07.325Z,1.59
2022-11-15T05:35:35.459Z,1.48
2022-11-15T05:38:56.620Z,1.37
2022-11-15T05:42:17.940Z,1.54
2022-11-15T05:45:39.043Z,1.51
2022-11-15T05:49:00.494Z,1.68
2022-11-15T05:52:26.661Z,1.76
2022-11-15T05:55:48.565Z,1.82
2022-11-15T05:59:10.838Z,1.89
2022-11-15T06:02:31.977Z,2.00
2022-11-15T06:05:53.252Z,2.11
2022-11-15T06:09:14.743Z,2.07
2022-11-15T06:13:00.322Z,1.85
2022-11-15T06:16:21.576Z,1.74
2022-11-15T06:19:42.621Z,1.72
2022-11-15T06:23:05.958Z,1.81
2022-11-15T06:26:27.387Z,1.53
2022-11-15T06:29:48.578Z,1.68
2022-11-15T06:33:10.371Z,1.63
2022-11-15T06:36:31.602Z,1.77
2022-11-15T06:39:52.758Z,1.71
2022-11-15T06:43:13.885Z,1.96
2022-11-15T06:46:34.994Z,2.20
2022-11-15T06:49:56.611Z,2.11
2022-11-15T06:53:18.281Z,2.11
2022-11-15T06:56:39.017Z,2.38
2022-11-15T07:00:00.133Z,2.44
2022-11-15T07:03:21.610Z,2.55
2022-11-15T07:06:42.920Z,2.67
2022-11-15T07:10:05.216Z,2.73
2022-11-15T07:13:27.473Z,2.93
2022-11-15T07:16:48.410Z,3.00
2022-11-15T07:20:09.859Z,3.11
2022-11-15T07:23:31.465Z,3.11
2022-11-15T07:26:52.620Z,3.23
2022-11-15T07:30:16.752Z,3.41
2022-11-15T07:33:37.986Z,3.49
2022-11-15T07:36:59.064Z,3.68
2022-11-15T07:40:20.066Z,3.82
2022-11-15T07:43:41.494Z,3.94
2022-11-15T07:47:02.857Z,4.04
2022-11-15T07:50:25.364Z,4.01
2022-11-15T07:53:46.670Z,4.27
2022-11-15T07:57:10.201Z,4.41
2022-11-15T08:00:31.937Z,4.42
2022-11-15T08:03:53.075Z,4.51
2022-11-15T08:07:14.045Z,4.37
2022-11-15T08:10:40.563Z,4.52
2022-11-15T08:14:02.180Z,4.56
2022-11-15T08:17:27.051Z,4.71
2022-11-15T08:20:53.097Z,4.79
2022-11-15T08:24:14.397Z,4.83
2022-11-15T08:27:37.163Z,5.17
2022-11-15T08:30:59.068Z,5.13
2022-11-15T08:34:20.398Z,5.18
2022-11-15T08:37:41.491Z,5.25
2022-11-15T08:41:05.595Z,5.08
2022-11-15T08:44:27.216Z,5.09
2022-11-15T08:47:53.789Z,4.78
2022-11-15T08:51:16.121Z,4.90
2022-11-15T08:54:40.117Z,5.16
2022-11-15T08:58:01.071Z,5.11
2022-11-15T09:01:22.613Z,4.69
2022-11-15T09:04:44.646Z,4.60
2022-11-15T09:08:25.028Z,4.81
2022-11-15T09:11:47.741Z,5.16
2022-11-15T09:15:09.738Z,5.25
2022-11-15T09:18:34.351Z,5.26
2022-11-15T09:21:56.144Z,5.58
2022-11-15T09:25:19.881Z,5.06
2022-11-15T09:28:43.471Z,4.81
2022-11-15T09:32:11.429Z,5.25
2022-11-15T09:35:32.741Z,5.56
2022-11-15T09:38:54.448Z,5.86
2022-11-15T09:42:46.012Z,6.01
2022-11-15T09:46:38.331Z,6.12
2022-11-15T09:50:23.193Z,6.42
2022-11-15T09:54:30.375Z,6.71
2022-11-15T09:57:16.631Z,6.70
2022-11-15T10:00:49.084Z,6.90
2022-11-15T10:03:51.896Z,7.05
2022-11-15T10:07:22.331Z,7.21
2022-11-15T10:10:42.607Z,7.11
2022-11-15T10:13:57.461Z,7.29
2022-11-15T10:17:37.586Z,7.09
2022-11-15T10:20:59.190Z,6.82
2022-11-15T10:24:02.351Z,6.74
2022-11-15T10:27:14.064Z,6.94
2022-11-15T10:30:19.347Z,6.68
2022-11-15T10:33:32.794Z,6.41
2022-11-15T10:36:35.461Z,6.29
2022-11-15T10:39:38.340Z,6.27
2022-11-15T10:42:41.029Z,6.28
2022-11-15T10:45:45.639Z,6.23
2022-11-15T10:48:48.090Z,6.30
2022-11-15T10:51:59.726Z,6.35
2022-11-15T10:55:24.878Z,6.46
2022-11-15T10:58:35.561Z,6.53
2022-11-15T11:01:47.462Z,6.48
2022-11-15T11:04:51.944Z,6.49
2022-11-15T11:08:00.178Z,6.63
2022-11-15T11:11:08.785Z,6.82
2022-11-15T11:14:23.450Z,7.05
2022-11-15T11:17:41.917Z,7.37
2022-11-15T11:20:52.131Z,7.56
2022-11-15T11:24:04.596Z,7.06
2022-11-15T11:27:41.054Z,6.93
2022-11-15T11:30:57.308Z,7.38
2022-11-15T11:34:43.626Z,7.33
2022-11-15T11:38:23.797Z,7.16
2022-11-15T11:42:02.442Z,7.19
2022-11-15T11:45:11.010Z,7.51
2022-11-15T11:48:15.894Z,7.41
2022-11-15T11:51:18.870Z,7.14
2022-11-15T11:54:49.267Z,7.27
2022-11-15T11:57:57.839Z,7.50
2022-11-15T12:01:12.737Z,7.38
2022-11-15T12:04:16.937Z,7.50
2022-11-15T12:07:35.672Z,7.65
2022-11-15T12:14:27.690Z,7.82
2022-11-15T12:17:33.193Z,8.07
2022-11-15T12:20:43.827Z,8.07
2022-11-15T12:23:55.378Z,8.11
2022-11-15T12:27:33.463Z,8.23
2022-11-15T12:30:49.174Z,8.41
2022-11-15T12:33:57.401Z,8.35
2022-11-15T12:37:00.017Z,8.27
2022-11-15T12:40:19.629Z,8.40
2022-11-15T12:43:39.792Z,8.76
2022-11-15T12:46:42.330Z,8.94
2022-11-15T12:49:46.276Z,9.04
2022-11-15T12:53:23.737Z,9.18
2022-11-15T12:56:26.470Z,9.13
2022-11-15T13:00:08.265Z,9.10
2022-11-15T13:03:19.815Z,9.16
2022-11-15T13:06:42.209Z,9.20
2022-11-15T13:09:44.917Z,9.21
2022-11-15T13:12:47.556Z,9.16
2022-11-15T13:15:59.603Z,9.14
2022-11-15T13:19:06.677Z,9.07
2022-11-15T13:22:30.398Z,8.98
2022-11-15T13:25:52.046Z,9.01
2022-11-15T13:28:56.811Z,9.05
2022-11-15T13:31:59.378Z,9.09
2022-11-15T13:35:02.662Z,9.10
2022-11-15T13:38:06.578Z,8.99
2022-11-15T13:41:20.030Z,8.79
2022-11-15T13:44:27.959Z,8.66
2022-11-15T13:47:32.670Z,8.61
2022-11-15T13:50:39.355Z,8.49
2022-11-15T13:53:47.731Z,8.32
2022-11-15T13:56:57.022Z,8.31
2022-11-15T14:00:07.002Z,8.34
2022-11-15T14:03:22.023Z,8.37
2022-11-15T14:06:28.109Z,8.41
2022-11-15T14:09:33.985Z,8.40
2022-11-15T14:12:37.132Z,8.33
2022-11-15T14:15:40.792Z,8.36
2022-11-15T14:18:53.824Z,8.32
2022-11-15T14:22:25.494Z,8.30
2022-11-15T14:25:30.677Z,8.33
2022-11-15T14:28:38.355Z,8.31
2022-11-15T14:31:43.858Z,8.23
2022-11-15T14:34:47.700Z,8.22
2022-11-15T14:37:50.569Z,8.31
2022-11-15T14:40:54.796Z,8.27
2022-11-15T14:43:57.310Z,8.15
2022-11-15T14:46:59.747Z,8.16
2022-11-15T14:50:03.035Z,8.23
2022-11-15T14:53:06.339Z,8.12
2022-11-15T14:56:09.632Z,7.99
2022-11-15T14:59:12.274Z,8.02
2022-11-15T15:02:21.589Z,7.92
2022-11-15T15:05:30.947Z,7.61
2022-11-15T15:08:33.721Z,7.49
2022-11-15T15:11:36.346Z,7.48
2022-11-15T15:14:39.040Z,7.50
2022-11-15T15:17:41.714Z,7.43
2022-11-15T15:20:48.799Z,7.45
2022-11-15T15:23:54.962Z,7.49
2022-11-15T15:26:57.326Z,7.58
2022-11-15T15:29:59.733Z,7.65
2022-11-15T15:33:02.181Z,7.67
2022-11-15T15:36:04.809Z,7.72
2022-11-15T15:39:11.404Z,7.67
2022-11-15T15:42:13.997Z,7.59
2022-11-15T15:45:18.074Z,7.69
2022-11-15T15:48:20.823Z,7.62
2022-11-15T15:51:23.760Z,7.61
2022-11-15T15:54:26.460Z,7.73
2022-11-15T15:57:29.122Z,7.76
2022-11-15T16:00:39.279Z,7.73
2022-11-15T16:03:41.610Z,7.81
2022-11-15T16:06:45.481Z,7.81
2022-11-15T16:10:03.288Z,7.90
2022-11-15T16:13:05.732Z,7.86
2022-11-15T16:16:13.985Z,7.68
2022-11-15T16:19:16.448Z,7.62
2022-11-15T16:22:18.907Z,7.53
2022-11-15T16:25:21.569Z,7.56
2022-11-15T16:28:33.795Z,7.53
2022-11-15T16:31:37.549Z,7.43
2022-11-15T16:34:43.836Z,7.53
2022-11-15T16:37:48.734Z,7.51
2022-11-15T16:40:53.401Z,7.47
2022-11-15T16:43:55.779Z,7.39
2022-11-15T16:46:58.235Z,7.31
2022-11-15T16:50:00.799Z,7.34
2022-11-15T16:53:03.180Z,7.38
2022-11-15T16:56:18.015Z,7.39
2022-11-15T16:59:20.980Z,7.57
2022-11-15T17:02:23.532Z,7.34
2022-11-15T17:05:28.660Z,7.42
2022-11-15T17:08:31.530Z,7.38
2022-11-15T17:11:34.890Z,7.55
2022-11-15T17:14:37.530Z,7.49
2022-11-15T17:17:40.842Z,7.43
2022-11-15T17:20:44.398Z,7.48
2022-11-15T17:23:47.512Z,7.42
2022-11-15T17:26:50.142Z,7.32
2022-11-15T17:29:52.966Z,7.42
2022-11-15T17:32:56.858Z,7.49
2022-11-15T17:36:04.831Z,7.53
2022-11-15T17:39:07.535Z,7.54
2022-11-15T17:42:10.088Z,7.52
2022-11-15T17:45:12.770Z,7.60
2022-11-15T17:48:15.363Z,7.58
2022-11-15T17:51:18.973Z,7.58
2022-11-15T17:54:21.447Z,7.65
2022-11-15T17:57:24.189Z,7.65
2022-11-15T18:00:29.135Z,7.55
2022-11-15T18:03:35.381Z,7.58
2022-11-15T18:06:38.379Z,7.48
2022-11-15T18:09:43.999Z,7.41
2022-11-15T18:12:46.585Z,7.45
2022-11-15T18:16:02.523Z,7.49
2022-11-15T18:19:09.205Z,7.53
2022-11-15T18:22:11.854Z,7.53
2022-11-15T18:25:16.027Z,7.53
2022-11-15T18:28:18.375Z,7.55
2022-11-15T18:31:27.165Z,7.55
2022-11-15T18:34:32.622Z,7.46
2022-11-15T18:37:35.259Z,7.50
2022-11-15T18:40:38.247Z,7.56
2022-11-15T18:43:41.152Z,7.48
2022-11-15T18:46:45.176Z,7.43
2022-11-15T18:49:48.110Z,7.42
2022-11-15T18:52:50.647Z,7.41
2022-11-15T18:55:53.006Z,7.48
2022-11-15T18:58:58.050Z,7.49
2022-11-15T19:02:00.430Z,7.50
2022-11-15T19:05:03.395Z,7.51
2022-11-15T19:08:06.101Z,7.51
2022-11-15T19:11:16.901Z,7.59
2022-11-15T19:14:24.098Z,7.55
2022-11-15T19:17:27.954Z,7.45
2022-11-15T19:20:31.088Z,7.51
2022-11-15T19:23:38.828Z,7.56
2022-11-15T19:26:41.990Z,7.54
2022-11-15T19:29:44.611Z,7.56
2022-11-15T19:32:47.217Z,7.56
2022-11-15T19:35:49.686Z,7.69
2022-11-15T19:38:53.877Z,7.59
2022-11-15T19:41:56.998Z,7.58
2022-11-15T19:44:59.618Z,7.37
2022-11-15T19:48:02.078Z,7.53
2022-11-15T19:51:08.733Z,7.43
2022-11-15T19:54:11.444Z,7.36
2022-11-15T19:57:13.948Z,7.43
2022-11-15T20:00:17.473Z,7.18
2022-11-15T20:03:20.098Z,7.13
2022-11-15T20:06:28.374Z,7.06
2022-11-15T20:09:30.878Z,7.09
2022-11-15T20:12:33.286Z,7.21
2022-11-15T20:15:35.934Z,7.20
2022-11-15T20:18:38.457Z,7.25
2022-11-15T20:21:42.254Z,7.12
2022-11-15T20:24:44.690Z,7.22
2022-11-15T20:27:47.256Z,7.32
2022-11-15T20:30:56.906Z,7.28
2022-11-15T20:33:59.692Z,7.42
2022-11-15T20:37:02.407Z,7.28
2022-11-15T20:40:05.684Z,7.30
2022-11-15T20:43:13.063Z,7.35
2022-11-15T20:46:15.622Z,7.37
2022-11-15T20:49:28.417Z,7.04
2022-11-15T20:52:31.257Z,6.96
2022-11-15T20:55:34.182Z,6.86
2022-11-15T20:58:37.544Z,6.90
2022-11-15T21:01:40.388Z,6.91
2022-11-15T21:04:42.981Z,6.93
2022-11-15T21:07:45.729Z,7.02
2022-11-15T21:11:10.010Z,7.01
2022-11-15T21:14:12.452Z,7.14
2022-11-15T21:17:16.356Z,7.21
2022-11-15T21:20:19.186Z,7.24
2022-11-15T21:23:21.575Z,7.32
2022-11-15T21:26:24.007Z,7.37
2022-11-15T21:29:26.879Z,7.39
2022-11-15T21:32:29.919Z,7.40
2022-11-15T21:35:33.028Z,7.52
2022-11-15T21:38:35.852Z,7.58
2022-11-15T21:41:38.710Z,7.61
2022-11-15T21:44:41.089Z,7.49
2022-11-15T21:47:46.345Z,7.51
2022-11-15T21:50:59.030Z,7.53
2022-11-15T21:54:01.861Z,7.53
2022-11-15T21:57:04.272Z,7.52
2022-11-15T22:00:25.994Z,7.49
2022-11-15T22:03:28.866Z,7.36
2022-11-15T22:06:31.160Z,7.18
2022-11-15T22:09:33.602Z,7.26
2022-11-15T22:12:37.011Z,7.38
2022-11-15T22:15:39.435Z,7.14
2022-11-15T22:18:42.310Z,7.02
2022-11-15T22:21:44.952Z,6.94
2022-11-15T22:24:47.567Z,6.96
2022-11-15T22:27:50.123Z,6.97
2022-11-15T22:30:55.406Z,6.89
2022-11-15T22:33:57.816Z,6.89
2022-11-15T22:37:19.682Z,6.81
2022-11-15T22:40:23.683Z,6.78
2022-11-15T22:43:27.331Z,6.81
2022-11-15T22:46:30.348Z,7.00
2022-11-15T22:49:32.868Z,7.02
2022-11-15T22:52:35.680Z,7.08
2022-11-15T22:55:42.036Z,7.08
2022-11-15T22:58:44.581Z,7.13
2022-11-15T23:01:47.188Z,7.20
2022-11-15T23:04:49.838Z,7.24
2022-11-15T23:07:52.321Z,7.37
2022-11-15T23:11:14.448Z,7.36
2022-11-15T23:14:36.781Z,7.44
2022-11-15T23:17:59.174Z,7.49
2022-11-15T23:21:42.871Z,7.52
2022-11-15T23:25:05.415Z,7.52
2022-11-15T23:28:08.014Z,7.57
2022-11-15T23:31:29.508Z,7.46
2022-11-15T23:34:34.906Z,7.51
2022-11-15T23:37:37.501Z,7.48
2022-11-15T23:40:40.104Z,7.46
2022-11-15T23:43:42.628Z,7.43
2022-11-15T23:46:45.221Z,7.44
2022-11-15T23:49:47.695Z,7.43
2022-11-15T23:52:50.206Z,7.49
2022-11-15T23:56:12.980Z,7.52
2022-11-15T23:59:15.490Z,7.47
